Port Jefferson, NY (11777)

5:35 AM EDT on September 02, 2015 (GMT -0400)
Canyon Creek | | Change Station
CLOSE
Current Station
Personal Weather Station
Location: Port Jefferson, NY
Elevation: 233 ft
Nearby Weather Stations
Active Advisory: Special Statement Active Notice: Record Report

Elev 233 ft 40.94 °N, 73.06 °W | Updated 5 seconds ago

Partly Cloudy
Partly Cloudy
70.0 °F
Feels Like 70.0 °F
N
2.6
Wind Variable Wind from NW
Gusts 4.5 mph

Today
High -- | Low -- °F
--% Chance of Precip.
Yesterday
High -- | Low -- °F
Precip. -- in
6:19 AM 7:23 PM
Waning Gibbous, 82% visible
Pressure 30.01 in
Visibility 4.0 miles
Clouds Mostly Cloudy 200 ft
Dew Point 69 °F
Humidity 98%
Rainfall 0.00 in
Snow Depth Not available.
UV 0 out of 12
Pollen 9.50 out of 12
Air Quality Not available.
Flu Activity Not available.
SPECI KISP 020931Z AUTO 00000KT 4SM BR BKN002 19/18 A3001 RMK AO2 T01940178 $
Pressure 30.01 in
Visibility 4.0 miles
Clouds Mostly Cloudy 200 ft
Dew Point 69 °F
Humidity 98%
Rainfall 0.00 in
Snow Depth Not available.
UV 0 out of 12
Pollen 9.50 out of 12
Air Quality Not available.
Flu Activity Not available.
SPECI KISP 020931Z AUTO 00000KT 4SM BR BKN002 19/18 A3001 RMK AO2 T01940178 $

10-Day Weather Forecast

×

Almanac

Astronomy

Sep. 02, 2015 Rise Set
Actual Time
Civil Twilight
Nautical Twilight
Astronomical Twilight
Moon
Length of Visible Light
Length of Day
Tomorrow will be .
, % of the Moon is Illuminated

Today's Extremes

State Highs State Lows

Community

WunderPhotos

Upload Photos

1,851,730 photos uploaded!

WunderBlogs® & News

Nearby

Air Quality

  Air Quality AQ Index Pollutant
Not available.

Snow Depth

Station Depth Elevation

Earthquake Activity

City Distance Mag. Time & Date
Minimum magnitude displayed is 2.5.

Coastal Water Temperatures

Place Temperature

Stations

Nearby Weather Stations

Station Location Temp. Windchill Dew Point Humidity Wind Precip. Elev Updated Type
                   
Special Statement
Statement as of 5:20 AM EDT on September 02, 2015

... Patchy dense fog until 8 am...

Clear skies and calm winds will cause areas of fog until around 8
am.

A few patches of dense fog may briefly restrict visibility to 1/4
mile or less.

Motorists should exercise extra caution while driving through
early morning fog.



520 am EDT Wed Sep 2 2015

... Patchy dense fog until 8 am...

Clear skies and calm winds will cause areas of fog until around 8
am.

A few patches of dense fog may briefly restrict visibility to 1/4
mile or less.

Motorists should exercise extra caution while driving through
early morning fog.


520 am EDT Wed Sep 2 2015

... Patchy dense fog until 8 am...

Clear skies and calm winds will cause areas of fog until around 8
am.

A few patches of dense fog may briefly restrict visibility to 1/4
mile or less.

Motorists should exercise extra caution while driving through
early morning fog.